Aldebaran — 9HA2000 — position and weather

sailwx.info

Track history (hours):
 
Tides and Currents Weather Stations Pressure Air Temp Water Temp Dewpoint Dewpoint Depression Visibility Wind Speed Wind Dir Waves Ship Positions

Aldebaran

Last reported at 2018-Feb-19 00:16 UTC. Time now 2018-Feb-22 12:38 UTC.
Position N 27°40' W 013°46'.

Length 207 m; draft 11 m.

Type: Ship (hazmat cat C). MMSI: 249771000.

Date/timePositionNaut miles runAvg speedWind from/ knotsBaromVisibWave heightAir tempDewpointWater temp
2018-Feb-19 00:16N 27°40' W 013°46'816.2
2018-Feb-18 23:45N 27°47' W 013°41'517.0
2018-Feb-18 23:29N 27°50' W 013°37'1216.4
2018-Feb-18 22:45N 27°60' W 013°29'516.3
2018-Feb-18 22:26N 28°04' W 013°26'1416.4
2018-Feb-18 21:34N 28°15' W 013°16'116.2
2018-Feb-18 21:29N 28°16' W 013°15'816.3
2018-Feb-18 21:00N 28°23' W 013°10'816.0
2018-Feb-18 20:30N 28°30' W 013°05'  
2018-Feb-14 23:20N 36°03' W 005°11'515.6
2018-Feb-14 23:00N 35°60' W 005°16'612.8
2018-Feb-14 22:30N 35°58' W 005°24'5 0.3
2018-Feb-14 05:48N 35°56' W 005°29'1 4.0
2018-Feb-14 05:30N 35°57' W 005°30'3 6.1
2018-Feb-14 05:00N 35°59' W 005°27'510.8
2018-Feb-14 04:30N 36°01' W 005°20'611.9
2018-Feb-14 04:00N 36°04' W 005°14'5 0.2
2018-Feb-13 01:41N 36°02' W 005°09'314.7
2018-Feb-13 01:30N 36°01' W 005°12'714.3
2018-Feb-13 01:00N 35°59' W 005°20'714.0
2018-Feb-13 00:30N 35°57' W 005°29'  
Track history (hours):
 
Tides and Currents Weather Stations Pressure Air Temp Water Temp Dewpoint Dewpoint Depression Visibility Wind Speed Wind Dir Waves Ship Positions

Aldebaran

Last reported at 2018-Feb-19 00:16 UTC. Time now 2018-Feb-22 12:38 UTC.
Position N 27°40' W 013°46'.

Length 207 m; draft 11 m.

Type: Ship (hazmat cat C). MMSI: 249771000.

Date/timePositionNaut miles runAvg speedWind from/ knotsBaromVisibWave heightAir tempDewpointWater temp
2018-Feb-19 00:16N 27°40' W 013°46'816.2
2018-Feb-18 23:45N 27°47' W 013°41'517.0
2018-Feb-18 23:29N 27°50' W 013°37'1216.4
2018-Feb-18 22:45N 27°60' W 013°29'516.3
2018-Feb-18 22:26N 28°04' W 013°26'1416.4
2018-Feb-18 21:34N 28°15' W 013°16'116.2
2018-Feb-18 21:29N 28°16' W 013°15'816.3
2018-Feb-18 21:00N 28°23' W 013°10'816.0
2018-Feb-18 20:30N 28°30' W 013°05'  
2018-Feb-14 23:20N 36°03' W 005°11'515.6
2018-Feb-14 23:00N 35°60' W 005°16'612.8
2018-Feb-14 22:30N 35°58' W 005°24'5 0.3
2018-Feb-14 05:48N 35°56' W 005°29'1 4.0
2018-Feb-14 05:30N 35°57' W 005°30'3 6.1
2018-Feb-14 05:00N 35°59' W 005°27'510.8
2018-Feb-14 04:30N 36°01' W 005°20'611.9
2018-Feb-14 04:00N 36°04' W 005°14'5 0.2
2018-Feb-13 01:41N 36°02' W 005°09'314.7
2018-Feb-13 01:30N 36°01' W 005°12'714.3
2018-Feb-13 01:00N 35°59' W 005°20'714.0
2018-Feb-13 00:30N 35°57' W 005°29'  

Dump ship's entire track history